Time;durP1;ratioP1;P1;durP2;ratioP2;P2;SDS_P1;SDS_P2;PMS_P1;PMS_P2;Temp;Humidity;BMP_temperature;BMP_pressure;BME280_temperature;BME280_humidity;BME280_pressure;Samples;Min_cycle;Max_cycle;Signal;HPM_P1;HPM_P2
2023/03/22 00:04:36;;;;;;;6.95;3.08;;;;;;;13.63;50.01;97573.66;10174807;29;20079;-76
2023/03/22 00:10:00;;;;;;;7.95;3.38;;;;;;;13.58;50.25;97565.63;10188596;29;20103;-76
2023/03/22 00:15:21;;;;;;;6.30;3.33;;;;;;;13.49;50.72;97558.13;10175447;29;20110;-76
2023/03/22 00:20:49;;;;;;;5.38;3.33;;;;;;;13.39;51.18;97550.66;10188448;29;20599;-76
2023/03/22 00:26:10;;;;;;;12.27;3.38;;;;;;;13.37;51.19;97558.97;10175069;29;20498;-76
2023/03/22 00:31:31;;;;;;;7.35;3.65;;;;;;;13.28;52.39;97540.25;10201620;29;20051;-75
2023/03/22 00:36:52;;;;;;;5.35;2.97;;;;;;;13.20;52.60;97539.81;10178062;29;20047;-76
2023/03/22 00:42:13;;;;;;;6.43;3.35;;;;;;;13.15;53.23;97526.91;10183006;29;20439;-76
2023/03/22 00:47:33;;;;;;;6.65;3.25;;;;;;;13.10;53.60;97525.22;10195362;29;20071;-75
2023/03/22 00:52:54;;;;;;;8.65;3.80;;;;;;;13.05;54.39;97526.34;10208638;29;20063;-76
2023/03/22 00:58:15;;;;;;;4.60;3.28;;;;;;;13.02;54.15;97525.50;10182203;29;20384;-76
2023/03/22 01:03:37;;;;;;;7.18;3.53;;;;;;;12.95;54.52;97520.22;10181932;29;20506;-76
2023/03/22 01:08:59;;;;;;;6.68;2.80;;;;;;;12.95;55.13;97520.94;10182577;29;20498;-76
2023/03/22 01:14:20;;;;;;;6.63;3.20;;;;;;;12.92;55.21;97518.63;10195308;29;20039;-76
2023/03/22 01:19:41;;;;;;;6.85;2.88;;;;;;;12.88;55.29;97511.47;10183013;29;20052;-76
2023/03/22 01:25:03;;;;;;;7.03;3.22;;;;;;;12.88;55.53;97516.34;10182775;29;20126;-76
2023/03/22 01:30:24;;;;;;;7.32;3.50;;;;;;;12.93;56.05;97517.28;10181871;29;20118;-75
2023/03/22 01:35:45;;;;;;;6.53;3.28;;;;;;;12.90;55.64;97514.38;10193907;29;20170;-76
2023/03/22 01:41:06;;;;;;;8.80;3.80;;;;;;;12.85;56.07;97507.09;10194060;29;20127;-75
2023/03/22 01:46:31;;;;;;;7.20;3.50;;;;;;;12.83;56.53;97497.84;10193539;29;20123;-76
2023/03/22 01:51:54;;;;;;;7.40;3.38;;;;;;;12.80;56.13;97499.09;10179950;29;20067;-76
2023/03/22 01:57:54;;;;;;;5.85;3.45;;;;;;;12.72;56.91;97493.03;10082289;29;20088;-76
2023/03/22 02:03:40;;;;;;;6.50;3.33;;;;;;;12.74;56.65;97485.50;10172664;29;20092;-76
2023/03/22 02:09:08;;;;;;;6.20;3.42;;;;;;;12.73;56.97;97484.00;10173234;29;20064;-76
2023/03/22 02:14:39;;;;;;;8.65;3.70;;;;;;;12.68;57.07;97481.63;10168580;29;20522;-76
2023/03/22 02:20:40;;;;;;;6.53;2.97;;;;;;;12.55;57.84;97474.63;10185256;29;20455;-76
2023/03/22 02:26:04;;;;;;;8.95;3.92;;;;;;;12.47;58.22;97496.56;10201094;29;20067;-76
2023/03/22 02:31:31;;;;;;;4.60;3.05;;;;;;;12.38;58.16;97500.25;10206935;29;20114;-76
2023/03/22 02:37:13;;;;;;;8.88;3.17;;;;;;;12.37;58.65;97507.91;10194845;29;20111;-76
2023/03/22 02:43:05;;;;;;;6.80;2.55;;;;;;;12.31;58.70;97502.69;10191751;29;20036;-76
2023/03/22 02:48:26;;;;;;;5.80;2.83;;;;;;;12.30;58.45;97490.06;10195677;29;20451;-76
2023/03/22 02:53:51;;;;;;;5.68;2.88;;;;;;;12.18;58.20;97486.56;10181199;29;20075;-76
2023/03/22 02:59:12;;;;;;;5.00;2.65;;;;;;;11.92;58.80;97480.19;10149164;29;20068;-75
2023/03/22 03:04:35;;;;;;;4.32;2.75;;;;;;;11.73;59.56;97486.03;10159423;29;20055;-76
2023/03/22 03:09:55;;;;;;;4.95;2.72;;;;;;;11.57;59.93;97501.81;10163419;29;20104;-75
2023/03/22 03:15:18;;;;;;;4.18;2.42;;;;;;;11.49;60.11;97501.38;10177141;29;20127;-76
2023/03/22 03:21:01;;;;;;;4.65;2.80;;;;;;;11.43;60.52;97501.72;10166938;29;20469;-76
2023/03/22 03:26:50;;;;;;;5.57;3.05;;;;;;;11.33;60.82;97501.09;10177499;29;20529;-75
2023/03/22 03:32:17;;;;;;;9.73;3.15;;;;;;;11.25;61.53;97500.63;10173691;29;20084;-75
2023/03/22 03:37:40;;;;;;;7.43;3.05;;;;;;;11.13;61.56;97501.34;10174824;29;20056;-76
2023/03/22 03:43:03;;;;;;;5.95;2.75;;;;;;;11.02;62.09;97507.63;10156161;29;20039;-76
2023/03/22 03:48:26;;;;;;;6.20;3.20;;;;;;;10.96;62.39;97501.66;10160887;29;20071;-76
2023/03/22 03:53:47;;;;;;;5.40;2.80;;;;;;;10.87;62.68;97494.13;10160689;29;20040;-76
2023/03/22 03:59:11;;;;;;;5.03;2.72;;;;;;;10.81;62.98;97497.28;10158143;29;20426;-76
2023/03/22 04:04:33;;;;;;;7.03;3.28;;;;;;;10.76;62.57;97509.50;10181795;29;20067;-76
2023/03/22 04:09:54;;;;;;;8.83;3.07;;;;;;;10.70;62.21;97511.91;10171529;29;20063;-77
2023/03/22 04:15:20;;;;;;;6.10;2.65;;;;;;;10.63;62.95;97506.56;10167415;29;20036;-76
2023/03/22 04:20:48;;;;;;;5.30;3.13;;;;;;;10.62;64.43;97513.47;10171948;29;20046;-76
2023/03/22 04:26:10;;;;;;;6.75;3.70;;;;;;;10.59;63.42;97518.91;10146249;29;20079;-76
2023/03/22 04:31:42;;;;;;;6.05;3.45;;;;;;;10.54;63.81;97517.22;10170914;29;20071;-76
2023/03/22 04:37:14;;;;;;;5.65;3.65;;;;;;;10.48;63.96;97507.72;10157124;29;20171;-76
2023/03/22 04:42:47;;;;;;;6.47;3.45;;;;;;;10.40;64.07;97513.50;10166982;29;20044;-76
2023/03/22 04:48:20;;;;;;;8.50;4.38;;;;;;;10.37;64.29;97506.34;10158888;29;20063;-76
2023/03/22 04:53:42;;;;;;;6.88;3.97;;;;;;;10.37;64.79;97500.03;10168923;29;20479;-76
2023/03/22 04:59:04;;;;;;;6.50;4.13;;;;;;;10.38;64.59;97499.41;10169122;29;20044;-76
2023/03/22 05:04:26;;;;;;;6.78;4.07;;;;;;;10.50;64.87;97513.41;10163440;29;20048;-76
2023/03/22 05:09:54;;;;;;;6.93;4.25;;;;;;;10.59;64.91;97512.59;10174447;29;20063;-76
2023/03/22 05:15:14;;;;;;;7.80;4.38;;;;;;;10.68;64.83;97516.63;10149732;29;20067;-77
2023/03/22 05:20:36;;;;;;;9.90;4.65;;;;;;;10.99;64.79;97520.00;10147823;29;20067;-76
2023/03/22 05:26:07;;;;;;;9.63;4.53;;;;;;;11.49;64.52;97516.06;10175036;29;20071;-76
2023/03/22 05:31:29;;;;;;;11.13;5.22;;;;;;;11.97;63.70;97520.31;10154891;29;20056;-77
2023/03/22 05:37:02;;;;;;;10.07;5.18;;;;;;;12.42;62.90;97508.88;10194032;29;20055;-76
2023/03/22 05:42:35;;;;;;;8.85;4.70;;;;;;;12.44;62.52;97515.31;10182302;29;20114;-76
2023/03/22 05:48:05;;;;;;;7.85;4.80;;;;;;;12.49;61.49;97507.88;10183012;29;20044;-76
2023/03/22 05:53:28;;;;;;;8.38;4.97;;;;;;;12.61;61.87;97511.34;10167157;29;20386;-77
2023/03/22 05:58:54;;;;;;;7.80;4.25;;;;;;;13.23;62.03;97510.56;10194263;29;20079;-76
2023/03/22 06:04:17;;;;;;;9.43;4.55;;;;;;;14.06;60.29;97508.50;10175921;29;20082;-76
2023/03/22 06:09:50;;;;;;;6.80;3.92;;;;;;;18.00;57.75;97513.31;10166338;29;20044;-76
2023/03/22 06:15:15;;;;;;;8.35;4.40;;;;;;;18.94;54.08;97512.88;10177766;29;20046;-75
2023/03/22 06:20:49;;;;;;;6.00;3.60;;;;;;;21.49;50.38;97514.59;10179611;29;20171;-75
2023/03/22 06:26:13;;;;;;;5.38;3.38;;;;;;;23.15;46.58;97525.38;10178593;29;20076;-73
2023/03/22 06:31:35;;;;;;;10.35;3.55;;;;;;;22.72;41.06;97509.78;10180982;29;20115;-73
2023/03/22 06:36:58;;;;;;;4.72;2.95;;;;;;;22.29;43.74;97517.56;10188509;29;20035;-73
2023/03/22 06:42:29;;;;;;;6.97;3.08;;;;;;;21.01;42.75;97518.47;10180838;29;20044;-73
2023/03/22 06:47:59;;;;;;;7.72;2.67;;;;;;;20.95;44.28;97526.16;10224252;28;20063;-72
2023/03/22 06:53:30;;;;;;;7.15;2.95;;;;;;;21.85;41.25;97526.69;10217788;29;20039;-75
2023/03/22 06:58:50;;;;;;;3.63;2.30;;;;;;;22.98;41.40;97523.72;10204340;29;20147;-75
2023/03/22 07:04:11;;;;;;;4.50;2.60;;;;;;;27.20;36.44;97513.13;10188343;29;20044;-76
2023/03/22 07:09:32;;;;;;;9.00;3.20;;;;;;;30.32;28.21;97520.78;10175603;29;20074;-76
2023/03/22 07:14:54;;;;;;;6.78;2.17;;;;;;;30.70;26.54;97521.66;10175280;29;20119;-76
2023/03/22 07:20:26;;;;;;;6.88;2.08;;;;;;;34.09;23.58;97515.50;10177972;29;20077;-76
2023/03/22 07:25:49;;;;;;;3.85;2.10;;;;;;;36.20;19.45;97525.06;10147257;29;20052;-76
2023/03/22 07:31:20;;;;;;;4.80;2.22;;;;;;;34.82;18.33;97513.19;10177333;29;20490;-76
2023/03/22 07:37:05;;;;;;;5.18;1.75;;;;;;;37.27;17.42;97509.88;10183709;29;20092;-76
2023/03/22 07:42:30;;;;;;;3.00;1.50;;;;;;;38.78;14.42;97510.22;10175100;29;20054;-75
2023/03/22 07:47:57;;;;;;;5.75;1.50;;;;;;;39.67;13.71;97507.22;10176287;29;20048;-80
2023/03/22 07:53:39;;;;;;;5.13;1.30;;;;;;;39.40;12.89;97507.88;10164275;29;20114;-80
2023/03/22 07:59:00;;;;;;;3.97;1.20;;;;;;;39.76;12.13;97502.31;10173273;29;20082;-80
2023/03/22 08:04:21;;;;;;;3.95;1.20;;;;;;;39.77;11.66;97509.59;10174194;29;20513;-80
2023/03/22 08:09:57;;;;;;;6.45;1.33;;;;;;;38.48;12.47;97497.13;10187006;29;20047;-80
2023/03/22 08:15:19;;;;;;;3.10;1.02;;;;;;;42.19;11.59;97504.28;10173911;29;20058;-80
2023/03/22 08:20:44;;;;;;;2.95;1.10;;;;;;;42.60;10.08;97480.44;10174222;29;20451;-79
2023/03/22 08:26:10;;;;;;;3.00;0.97;;;;;;;41.24;9.99;97496.19;10175381;29;20066;-80
2023/03/22 08:31:31;;;;;;;1.67;0.82;;;;;;;41.02;10.74;97497.50;10173545;29;20529;-81
2023/03/22 08:36:53;;;;;;;3.80;1.00;;;;;;;41.03;10.30;97493.78;10173156;29;20043;-80
2023/03/22 08:42:15;;;;;;;4.55;0.80;;;;;;;40.28;10.33;97484.13;10173462;29;20044;-80
2023/03/22 08:47:36;;;;;;;0.93;0.43;;;;;;;42.17;10.30;97497.84;10173224;29;20048;-80
2023/03/22 08:53:01;;;;;;;1.92;0.47;;;;;;;44.06;8.88;97484.41;10161425;29;20091;-80
2023/03/22 08:58:27;;;;;;;3.65;0.80;;;;;;;43.38;8.24;97479.59;10189444;29;20537;-78
2023/03/22 09:04:20;;;;;;;2.20;0.47;;;;;;;41.68;9.19;97469.34;10188460;29;20533;-80
2023/03/22 09:09:41;;;;;;;1.63;0.40;;;;;;;42.67;8.80;97479.22;10180375;29;20047;-81
2023/03/22 09:15:05;;;;;;;1.75;0.30;;;;;;;42.79;8.60;97490.13;10180198;29;20103;-80
2023/03/22 09:20:31;;;;;;;0.82;0.35;;;;;;;43.30;8.17;97474.97;10178993;29;20070;-80
2023/03/22 09:25:52;;;;;;;0.93;0.32;;;;;;;43.42;7.99;97476.38;10179061;29;20047;-79
2023/03/22 09:31:17;;;;;;;1.23;0.28;;;;;;;44.25;7.40;97467.56;10192658;29;20051;-79
2023/03/22 09:36:46;;;;;;;2.30;0.32;;;;;;;44.40;7.62;97473.09;10183311;29;20391;-80
2023/03/22 09:42:31;;;;;;;3.08;0.43;;;;;;;43.94;7.47;97454.34;10198525;29;20048;-80
2023/03/22 09:47:55;;;;;;;1.38;0.50;;;;;;;43.92;7.52;97451.56;10191087;29;20043;-80
2023/03/22 09:53:17;;;;;;;1.52;0.45;;;;;;;43.64;7.67;97445.44;10177828;29;20036;-80
2023/03/22 09:59:12;;;;;;;1.67;0.90;;;;;;;43.56;7.72;97430.63;10190294;29;20043;-79
2023/03/22 10:05:11;;;;;;;2.05;0.77;;;;;;;44.11;7.78;97429.63;10188614;29;20048;-79
2023/03/22 10:10:33;;;;;;;0.85;0.50;;;;;;;45.31;6.97;97426.56;10191264;29;20043;-79
2023/03/22 10:16:01;;;;;;;2.15;0.50;;;;;;;46.88;6.92;97419.75;10170992;29;20406;-79
2023/03/22 10:21:22;;;;;;;1.67;0.63;;;;;;;47.20;5.97;97422.91;10190993;29;20081;-79
2023/03/22 10:26:45;;;;;;;0.80;0.50;;;;;;;46.98;6.41;97418.88;10177307;29;20375;-79
2023/03/22 10:32:14;;;;;;;1.20;0.50;;;;;;;46.34;6.63;97411.66;10154201;29;20487;-79
2023/03/22 10:37:35;;;;;;;3.20;0.47;;;;;;;48.02;6.48;97412.81;10189849;29;20043;-79
2023/03/22 10:43:03;;;;;;;2.27;0.50;;;;;;;48.62;5.65;97399.97;10190604;29;20483;-80
2023/03/22 10:48:32;;;;;;;0.73;0.30;;;;;;;48.12;5.20;97391.88;10189646;29;20510;-79
2023/03/22 10:53:54;;;;;;;0.77;0.38;;;;;;;47.48;5.58;97398.34;10175902;29;20051;-79
2023/03/22 10:59:40;;;;;;;1.10;0.38;;;;;;;46.51;5.80;97381.50;10175701;29;20047;-80
2023/03/22 11:05:03;;;;;;;1.10;0.50;;;;;;;42.89;7.07;97367.72;10184991;29;20409;-79
2023/03/22 11:10:31;;;;;;;2.97;0.50;;;;;;;37.88;9.49;97371.03;10138127;29;20052;-78
2023/03/22 11:15:57;;;;;;;1.60;0.63;;;;;;;34.54;11.97;97358.38;10150174;29;20092;-78
2023/03/22 11:21:19;;;;;;;2.00;0.45;;;;;;;33.13;13.31;97375.75;10173904;29;20231;-78
2023/03/22 11:26:41;;;;;;;1.30;0.40;;;;;;;31.66;14.50;97344.03;10188377;29;20043;-78
2023/03/22 11:32:02;;;;;;;2.50;0.50;;;;;;;30.81;15.25;97341.44;10200716;29;20507;-78
2023/03/22 11:37:23;;;;;;;;;;;;;;;30.16;16.11;97331.03;10186940;29;20039;-78
2023/03/22 11:42:44;;;;;;;1.98;0.60;;;;;;;29.05;17.07;97319.69;10185295;29;20385;-76
2023/03/22 11:48:14;;;;;;;1.20;0.40;;;;;;;28.72;17.66;97304.94;10148499;29;20044;-78
2023/03/22 11:53:37;;;;;;;1.35;0.55;;;;;;;28.50;18.05;97314.53;10164338;29;20134;-79
2023/03/22 11:59:06;;;;;;;0.82;0.40;;;;;;;27.93;18.76;97300.66;10173097;29;20439;-79
2023/03/22 12:04:28;;;;;;;2.90;0.60;;;;;;;27.33;19.83;97297.47;10185843;29;20040;-79
2023/03/22 12:09:55;;;;;;;2.80;0.60;;;;;;;26.72;20.33;97285.56;10171536;29;20043;-79
2023/03/22 12:15:47;;;;;;;1.95;0.70;;;;;;;26.79;20.54;97266.94;10199097;29;20039;-79
2023/03/22 12:21:08;;;;;;;2.75;0.65;;;;;;;26.54;20.88;97249.16;10184505;29;20036;-78
2023/03/22 12:26:29;;;;;;;1.42;0.52;;;;;;;26.22;20.74;97255.63;10184094;29;20048;-79
2023/03/22 12:32:14;;;;;;;2.73;0.70;;;;;;;25.76;21.98;97245.66;10173848;29;20047;-78
2023/03/22 12:37:35;;;;;;;2.55;0.55;;;;;;;25.85;21.76;97237.81;10180682;29;20376;-79
2023/03/22 12:43:20;;;;;;;2.45;0.77;;;;;;;26.29;21.60;97227.72;10166778;29;20054;-78
2023/03/22 12:49:01;;;;;;;3.58;0.55;;;;;;;25.87;22.13;97218.53;10171624;29;20127;-77
2023/03/22 12:54:23;;;;;;;1.52;0.75;;;;;;;25.55;22.22;97209.94;10231224;29;20056;-80
2023/03/22 12:59:45;;;;;;;1.58;0.68;;;;;;;25.42;22.13;97211.34;10219728;29;20441;-79
2023/03/22 13:05:09;;;;;;;1.63;0.50;;;;;;;25.03;22.55;97205.59;10209670;28;20508;-76
2023/03/22 13:10:30;;;;;;;1.40;0.50;;;;;;;24.62;22.47;97196.91;10232683;29;20043;-77
2023/03/22 13:16:00;;;;;;;1.23;0.50;;;;;;;24.53;22.78;97201.84;10245216;28;20094;-76
2023/03/22 13:21:26;;;;;;;3.08;0.40;;;;;;;24.34;22.81;97208.19;10245438;29;20417;-76
2023/03/22 13:26:52;;;;;;;2.10;0.90;;;;;;;24.33;22.80;97189.66;10205055;29;20478;-75
2023/03/22 13:32:29;;;;;;;2.28;0.55;;;;;;;24.11;22.66;97187.38;10166348;29;20542;-75
2023/03/22 13:37:50;;;;;;;3.83;0.50;;;;;;;23.95;23.03;97188.72;10179182;29;20500;-75
2023/03/22 13:43:31;;;;;;;3.90;0.70;;;;;;;23.81;23.38;97187.91;10190355;29;20114;-75
2023/03/22 13:49:13;;;;;;;2.40;0.50;;;;;;;23.63;23.14;97188.47;10192209;29;20454;-75
2023/03/22 13:54:39;;;;;;;2.47;0.47;;;;;;;23.59;23.08;97180.63;10177618;29;20079;-74
2023/03/22 14:00:05;;;;;;;2.45;0.45;;;;;;;23.53;23.06;97183.41;10178923;29;20039;-75
2023/03/22 14:05:35;;;;;;;1.50;0.52;;;;;;;23.42;23.46;97171.22;10181995;29;20044;-75
2023/03/22 14:11:00;;;;;;;3.67;1.00;;;;;;;23.23;23.34;97169.63;10204284;29;20067;-75
2023/03/22 14:16:53;;;;;;;2.05;0.50;;;;;;;23.10;23.75;97173.78;10203738;29;20048;-75
2023/03/22 14:22:19;;;;;;;3.30;0.70;;;;;;;22.87;23.46;97149.38;10193055;29;20043;-75
2023/03/22 14:27:40;;;;;;;2.60;0.70;;;;;;;22.76;23.54;97157.06;10177021;29;20050;-75
2023/03/22 14:33:04;;;;;;;2.47;0.73;;;;;;;22.42;24.13;97151.72;10203102;29;20078;-75
2023/03/22 14:38:32;;;;;;;3.33;0.90;;;;;;;22.17;24.54;97150.69;10176894;29;20205;-73
2023/03/22 14:43:58;;;;;;;1.73;0.60;;;;;;;22.02;24.64;97155.47;10176892;29;20414;-75
2023/03/22 14:49:18;;;;;;;1.25;0.47;;;;;;;22.07;24.96;97156.25;10176545;29;20048;-75
2023/03/22 14:54:41;;;;;;;2.38;0.80;;;;;;;22.10;25.01;97149.19;10162950;29;20055;-75
2023/03/22 15:00:05;;;;;;;;;;;;;;;22.08;25.51;97152.72;10189615;29;20051;-75
2023/03/22 15:05:26;;;;;;;2.88;0.80;;;;;;;21.91;25.71;97143.25;10175887;29;19969;-75
2023/03/22 15:10:57;;;;;;;3.03;1.00;;;;;;;21.98;26.02;97141.91;10175425;29;20506;-73
2023/03/22 15:16:19;;;;;;;3.20;0.80;;;;;;;22.07;26.04;97127.84;10149347;29;20072;-73
2023/03/22 15:21:39;;;;;;;2.60;0.80;;;;;;;21.91;26.36;97125.50;10188160;29;20044;-73
2023/03/22 15:27:11;;;;;;;3.50;0.80;;;;;;;21.69;26.51;97132.28;10187851;29;20188;-75
2023/03/22 15:32:31;;;;;;;4.38;1.67;;;;;;;21.70;26.98;97133.72;10174689;29;20044;-75
2023/03/22 15:37:51;;;;;;;1.75;0.98;;;;;;;21.54;26.96;97136.34;10148536;29;20070;-72
2023/03/22 15:43:17;;;;;;;2.40;1.17;;;;;;;21.40;27.38;97134.00;10187191;29;20523;-74
2023/03/22 15:48:52;;;;;;;3.25;0.95;;;;;;;21.27;27.91;97135.22;10187035;29;20075;-73
2023/03/22 15:54:12;;;;;;;3.85;1.10;;;;;;;21.01;28.03;97138.31;10149241;29;20058;-75
2023/03/22 15:59:32;;;;;;;3.33;0.95;;;;;;;20.73;28.61;97147.03;10173647;29;20446;-74
2023/03/22 16:04:55;;;;;;;2.90;0.90;;;;;;;20.47;28.96;97152.22;10173444;29;20050;-75
2023/03/22 16:10:19;;;;;;;2.47;0.70;;;;;;;20.28;29.43;97154.66;10160481;29;20501;-75
2023/03/22 16:15:38;;;;;;;3.67;0.90;;;;;;;20.24;29.56;97148.91;10160766;29;20079;-75
2023/03/22 16:20:59;;;;;;;4.70;0.80;;;;;;;20.10;29.80;97145.78;10186413;29;20086;-75
2023/03/22 16:26:19;;;;;;;2.17;0.80;;;;;;;19.99;30.13;97152.66;10186695;29;20086;-74
2023/03/22 16:31:39;;;;;;;4.18;0.90;;;;;;;19.91;30.25;97160.97;10186185;29;20076;-75
2023/03/22 16:36:58;;;;;;;3.50;1.05;;;;;;;19.69;31.01;97166.88;10205029;29;20422;-74
2023/03/22 16:42:22;;;;;;;6.60;1.05;;;;;;;19.48;31.33;97168.44;10194874;28;20497;-74
2023/03/22 16:47:41;;;;;;;;;;;;;;;19.29;31.80;97172.25;10180359;29;20071;-75
2023/03/22 16:53:01;;;;;;;5.43;1.00;;;;;;;19.13;31.77;97170.47;10176375;29;19965;-75
2023/03/22 16:58:21;;;;;;;3.97;1.30;;;;;;;18.99;31.72;97167.28;10174854;29;20083;-76
2023/03/22 17:03:43;;;;;;;2.50;1.05;;;;;;;18.86;32.18;97162.69;10188552;29;20413;-75
2023/03/22 17:09:03;;;;;;;3.30;1.20;;;;;;;18.70;32.10;97179.22;10172332;29;20506;-74
2023/03/22 17:14:23;;;;;;;4.85;1.38;;;;;;;18.50;32.37;97168.78;10185489;29;20039;-75
2023/03/22 17:19:43;;;;;;;3.97;1.52;;;;;;;18.34;32.63;97173.28;10189109;29;20047;-76
2023/03/22 17:25:03;;;;;;;3.40;1.67;;;;;;;18.20;32.96;97171.50;10179281;29;20040;-75
2023/03/22 17:30:22;;;;;;;6.53;1.50;;;;;;;18.06;33.01;97178.84;10192136;29;20143;-76
2023/03/22 17:35:43;;;;;;;3.60;1.30;;;;;;;17.92;33.23;97173.47;10179530;29;20488;-77
2023/03/22 17:41:03;;;;;;;6.03;1.90;;;;;;;17.79;34.29;97180.88;10164406;29;20071;-79
2023/03/22 17:46:23;;;;;;;4.38;1.60;;;;;;;17.64;33.88;97181.78;10173464;29;20058;-76
2023/03/22 17:51:43;;;;;;;5.82;2.08;;;;;;;17.59;34.60;97185.88;10190276;29;20491;-77
2023/03/22 17:57:03;;;;;;;3.92;2.00;;;;;;;17.49;34.79;97191.19;10180763;29;20083;-76
2023/03/22 18:02:23;;;;;;;7.22;2.00;;;;;;;17.35;34.80;97191.44;10191465;29;20043;-76
2023/03/22 18:07:43;;;;;;;5.18;2.25;;;;;;;17.26;35.02;97193.28;10164388;29;20040;-76
2023/03/22 18:13:02;;;;;;;3.38;1.75;;;;;;;17.15;35.54;97197.16;10187928;29;20067;-76
2023/03/22 18:18:22;;;;;;;4.88;2.25;;;;;;;17.05;35.68;97194.72;10163854;29;20494;-77
2023/03/22 18:23:42;;;;;;;5.15;2.17;;;;;;;16.91;35.83;97202.00;10176222;29;20063;-75
2023/03/22 18:29:03;;;;;;;5.82;3.50;;;;;;;16.80;36.13;97203.75;10138075;29;20059;-75
2023/03/22 18:34:23;;;;;;;11.30;5.88;;;;;;;16.68;36.41;97195.56;10125634;29;20182;-76
2023/03/22 18:39:46;;;;;;;10.02;3.80;;;;;;;16.55;36.79;97197.22;10138708;29;20064;-77
2023/03/22 18:45:08;;;;;;;6.53;3.38;;;;;;;16.44;37.08;97203.16;10153021;29;20064;-76
2023/03/22 18:50:28;;;;;;;6.60;2.78;;;;;;;16.31;37.21;97197.06;10164032;29;20527;-76
2023/03/22 18:55:51;;;;;;;6.60;2.50;;;;;;;16.18;37.65;97198.00;10151147;29;20518;-76
2023/03/22 19:01:11;;;;;;;6.67;2.90;;;;;;;16.13;37.81;97204.84;10138241;29;20406;-76
2023/03/22 19:06:33;;;;;;;8.15;3.00;;;;;;;16.04;38.12;97208.72;10126447;29;20119;-76
2023/03/22 19:11:52;;;;;;;4.95;2.58;;;;;;;15.95;38.55;97218.25;10137301;29;20072;-75
2023/03/22 19:17:12;;;;;;;6.47;3.65;;;;;;;15.87;39.01;97226.38;10150101;29;20048;-75
2023/03/22 19:22:32;;;;;;;6.30;3.50;;;;;;;15.83;39.00;97226.22;10123714;29;20079;-75
2023/03/22 19:27:52;;;;;;;6.50;3.17;;;;;;;15.74;39.27;97228.72;10210247;28;20126;-75
2023/03/22 19:33:12;;;;;;;6.25;2.85;;;;;;;15.63;39.47;97218.44;10188519;29;20067;-75
2023/03/22 19:38:32;;;;;;;4.07;2.65;;;;;;;15.58;39.71;97222.41;10214329;29;20533;-75
2023/03/22 19:43:52;;;;;;;7.88;2.70;;;;;;;15.47;40.14;97229.00;10181474;29;20051;-75
2023/03/22 19:49:12;;;;;;;6.30;3.50;;;;;;;15.37;40.15;97220.16;10175330;29;20467;-76
2023/03/22 19:54:32;;;;;;;5.32;3.33;;;;;;;15.26;40.57;97221.13;10170112;29;20179;-75
2023/03/22 19:59:52;;;;;;;9.30;3.78;;;;;;;15.23;40.51;97217.47;10169844;29;20126;-75
2023/03/22 20:05:12;;;;;;;8.70;3.80;;;;;;;15.17;40.74;97232.03;10183014;29;20071;-75
2023/03/22 20:10:31;;;;;;;6.72;3.75;;;;;;;15.10;40.94;97227.50;10195727;29;20546;-75
2023/03/22 20:15:51;;;;;;;7.00;3.40;;;;;;;15.01;40.98;97220.09;10170442;29;20075;-76
2023/03/22 20:21:11;;;;;;;5.38;2.83;;;;;;;14.99;41.22;97228.44;10173618;29;20040;-75
2023/03/22 20:26:33;;;;;;;5.43;2.20;;;;;;;14.93;41.23;97216.94;10160819;29;20066;-75
2023/03/22 20:31:53;;;;;;;6.55;2.08;;;;;;;14.93;40.89;97236.63;10161265;29;20051;-75
2023/03/22 20:37:13;;;;;;;5.25;1.92;;;;;;;14.88;41.06;97230.13;10186809;29;20083;-75
2023/03/22 20:42:33;;;;;;;9.18;2.00;;;;;;;14.84;40.97;97229.19;10173336;29;20398;-75
2023/03/22 20:47:53;;;;;;;4.75;2.20;;;;;;;14.77;41.24;97230.31;10172980;29;20467;-75
2023/03/22 20:53:13;;;;;;;4.30;2.15;;;;;;;14.66;41.39;97243.19;10174867;29;20538;-75
2023/03/22 20:58:33;;;;;;;5.55;2.10;;;;;;;14.51;41.72;97250.28;10193562;29;20521;-75
2023/03/22 21:03:56;;;;;;;4.13;1.98;;;;;;;14.39;41.70;97249.72;10193431;29;20498;-75
2023/03/22 21:09:16;;;;;;;4.50;1.90;;;;;;;14.27;42.23;97249.16;10193830;29;20483;-75
2023/03/22 21:14:36;;;;;;;4.88;2.15;;;;;;;14.19;42.22;97254.41;10193144;29;20547;-75
2023/03/22 21:19:55;;;;;;;5.78;2.83;;;;;;;14.17;42.58;97246.63;10167024;29;20119;-75
2023/03/22 21:25:43;;;;;;;5.57;3.05;;;;;;;14.19;42.85;97248.81;10192840;29;20114;-75
2023/03/22 21:31:10;;;;;;;;;;;;;;;14.12;43.42;97247.78;10168651;29;20046;-75
2023/03/22 21:36:30;;;;;;;8.02;3.33;;;;;;;14.08;42.79;97246.88;10205724;29;20017;-75
2023/03/22 21:41:50;;;;;;;7.38;3.50;;;;;;;14.09;42.87;97248.31;10178931;29;20079;-75
2023/03/22 21:47:10;;;;;;;8.85;4.15;;;;;;;14.07;43.15;97257.38;10179126;29;20136;-75
2023/03/22 21:52:29;;;;;;;11.77;5.05;;;;;;;14.03;43.43;97245.97;10192107;29;20079;-75
2023/03/22 21:57:49;;;;;;;9.02;5.10;;;;;;;13.94;43.45;97256.09;10178224;29;20183;-75
2023/03/22 22:03:10;;;;;;;9.35;4.57;;;;;;;13.86;43.56;97252.91;10178373;29;20052;-75
2023/03/22 22:08:30;;;;;;;9.75;5.00;;;;;;;13.75;43.77;97243.28;10177346;29;20122;-75
2023/03/22 22:13:49;;;;;;;9.63;5.32;;;;;;;13.71;44.00;97248.00;10152099;29;20118;-75
2023/03/22 22:19:09;;;;;;;10.02;5.75;;;;;;;13.75;44.21;97248.19;10204049;29;20166;-74
2023/03/22 22:24:29;;;;;;;8.45;4.05;;;;;;;13.79;44.30;97236.41;10190826;29;20118;-75
2023/03/22 22:29:49;;;;;;;8.88;3.35;;;;;;;13.78;44.13;97230.09;10164246;29;20082;-75
2023/03/22 22:35:09;;;;;;;5.53;2.97;;;;;;;13.84;44.28;97227.56;10177369;29;20598;-75
2023/03/22 22:40:29;;;;;;;5.57;2.72;;;;;;;13.90;44.24;97235.56;10164693;29;20071;-74
2023/03/22 22:45:49;;;;;;;8.93;3.28;;;;;;;13.92;44.13;97233.56;10167252;29;20511;-75
2023/03/22 22:51:13;;;;;;;6.22;2.88;;;;;;;13.96;44.19;97228.13;10177448;29;20119;-76
2023/03/22 22:56:35;;;;;;;6.40;3.00;;;;;;;13.99;43.92;97226.13;10176110;29;20530;-75
2023/03/22 23:01:55;;;;;;;5.65;2.80;;;;;;;13.97;44.14;97232.38;10163744;29;20080;-75
2023/03/22 23:07:15;;;;;;;8.18;3.45;;;;;;;13.95;44.00;97223.88;10188854;29;20084;-75
2023/03/22 23:12:35;;;;;;;6.88;3.42;;;;;;;13.88;44.05;97216.53;10175850;29;20074;-75
2023/03/22 23:17:54;;;;;;;7.78;3.63;;;;;;;13.88;44.13;97221.41;10175156;29;20514;-75
2023/03/22 23:23:19;;;;;;;6.85;3.33;;;;;;;13.85;44.20;97212.19;10175151;29;20466;-75
2023/03/22 23:28:42;;;;;;;6.70;2.90;;;;;;;13.82;44.16;97213.47;10175283;29;20071;-75
2023/03/22 23:34:02;;;;;;;5.80;2.70;;;;;;;13.85;44.34;97217.78;10149645;29;20090;-75
2023/03/22 23:39:22;;;;;;;5.30;2.63;;;;;;;13.80;44.20;97213.38;10161717;29;20092;-75
2023/03/22 23:44:42;;;;;;;5.93;2.85;;;;;;;13.79;44.31;97213.97;10187479;29;20134;-75
2023/03/22 23:50:03;;;;;;;5.53;3.10;;;;;;;13.77;44.38;97203.41;10187707;29;20494;-75
2023/03/22 23:55:24;;;;;;;4.63;2.70;;;;;;;13.75;44.29;97209.63;10174030;29;20200;-75
